sensor_id;sensor_type;location;lat;lon;timestamp;temperature;humidity
11983;DHT22;72623;51.184;7.176;2023-10-19T00:01:22;10.70;99.90
11983;DHT22;72623;51.184;7.176;2023-10-19T00:03:54;10.70;99.90
11983;DHT22;72623;51.184;7.176;2023-10-19T00:06:22;10.80;99.90
11983;DHT22;72623;51.184;7.176;2023-10-19T00:08:49;10.80;99.90
11983;DHT22;72623;51.184;7.176;2023-10-19T00:11:17;10.80;99.90
11983;DHT22;72623;51.184;7.176;2023-10-19T00:13:49;10.80;99.90
11983;DHT22;72623;51.184;7.176;2023-10-19T00:16:15;10.80;99.90
11983;DHT22;72623;51.184;7.176;2023-10-19T00:18:46;10.80;99.90
11983;DHT22;72623;51.184;7.176;2023-10-19T00:21:14;10.90;99.90
11983;DHT22;72623;51.184;7.176;2023-10-19T00:23:46;10.80;99.90
11983;DHT22;72623;51.184;7.176;2023-10-19T00:26:13;10.80;99.90
11983;DHT22;72623;51.184;7.176;2023-10-19T00:28:43;10.90;99.90
11983;DHT22;72623;51.184;7.176;2023-10-19T00:31:12;10.90;99.90
11983;DHT22;72623;51.184;7.176;2023-10-19T00:33:39;10.90;99.90
11983;DHT22;72623;51.184;7.176;2023-10-19T00:36:09;10.90;99.90
11983;DHT22;72623;51.184;7.176;2023-10-19T00:38:39;10.90;99.90
11983;DHT22;72623;51.184;7.176;2023-10-19T00:41:08;11.00;99.90
11983;DHT22;72623;51.184;7.176;2023-10-19T00:43:42;11.00;99.90
11983;DHT22;72623;51.184;7.176;2023-10-19T00:46:14;11.00;99.90
11983;DHT22;72623;51.184;7.176;2023-10-19T00:48:57;11.00;99.90
11983;DHT22;72623;51.184;7.176;2023-10-19T00:51:27;11.10;99.90
11983;DHT22;72623;51.184;7.176;2023-10-19T00:54:15;11.20;99.90
11983;DHT22;72623;51.184;7.176;2023-10-19T00:56:47;11.20;99.90
11983;DHT22;72623;51.184;7.176;2023-10-19T00:59:20;11.30;99.90
11983;DHT22;72623;51.184;7.176;2023-10-19T01:01:53;11.40;99.90
11983;DHT22;72623;51.184;7.176;2023-10-19T01:04:23;11.40;99.90
11983;DHT22;72623;51.184;7.176;2023-10-19T01:06:57;11.40;99.90
11983;DHT22;72623;51.184;7.176;2023-10-19T01:09:30;11.40;99.90
11983;DHT22;72623;51.184;7.176;2023-10-19T01:12:01;11.40;99.90
11983;DHT22;72623;51.184;7.176;2023-10-19T01:14:31;11.40;99.90
11983;DHT22;72623;51.184;7.176;2023-10-19T01:16:58;11.40;99.90
11983;DHT22;72623;51.184;7.176;2023-10-19T01:19:26;11.50;99.90
11983;DHT22;72623;51.184;7.176;2023-10-19T01:21:53;11.50;99.90
11983;DHT22;72623;51.184;7.176;2023-10-19T01:24:25;11.50;99.90
11983;DHT22;72623;51.184;7.176;2023-10-19T01:27:05;11.60;99.90
11983;DHT22;72623;51.184;7.176;2023-10-19T01:29:34;11.60;99.90
11983;DHT22;72623;51.184;7.176;2023-10-19T01:32:04;11.60;99.90
11983;DHT22;72623;51.184;7.176;2023-10-19T01:34:34;11.70;99.90
11983;DHT22;72623;51.184;7.176;2023-10-19T01:37:01;11.70;99.90
11983;DHT22;72623;51.184;7.176;2023-10-19T01:39:33;11.70;99.90
11983;DHT22;72623;51.184;7.176;2023-10-19T01:42:01;11.70;99.90
11983;DHT22;72623;51.184;7.176;2023-10-19T01:44:26;11.80;99.90
11983;DHT22;72623;51.184;7.176;2023-10-19T01:46:53;11.80;99.90
11983;DHT22;72623;51.184;7.176;2023-10-19T01:49:19;11.90;99.90
11983;DHT22;72623;51.184;7.176;2023-10-19T01:51:53;11.90;99.90
11983;DHT22;72623;51.184;7.176;2023-10-19T01:54:20;11.90;99.90
11983;DHT22;72623;51.184;7.176;2023-10-19T01:56:54;11.90;99.90
11983;DHT22;72623;51.184;7.176;2023-10-19T01:59:26;11.90;99.90
11983;DHT22;72623;51.184;7.176;2023-10-19T02:01:55;12.00;99.90
11983;DHT22;72623;51.184;7.176;2023-10-19T02:04:24;12.00;99.90
11983;DHT22;72623;51.184;7.176;2023-10-19T02:06:51;12.00;99.90
11983;DHT22;72623;51.184;7.176;2023-10-19T02:09:19;12.00;99.90
11983;DHT22;72623;51.184;7.176;2023-10-19T02:11:51;12.10;99.90
11983;DHT22;72623;51.184;7.176;2023-10-19T02:14:21;12.10;99.90
11983;DHT22;72623;51.184;7.176;2023-10-19T02:16:51;12.10;99.90
11983;DHT22;72623;51.184;7.176;2023-10-19T02:19:17;12.10;99.90
11983;DHT22;72623;51.184;7.176;2023-10-19T02:21:48;12.10;99.90
11983;DHT22;72623;51.184;7.176;2023-10-19T02:24:15;12.10;99.90
11983;DHT22;72623;51.184;7.176;2023-10-19T02:26:42;12.20;99.90
11983;DHT22;72623;51.184;7.176;2023-10-19T02:29:10;12.20;99.90
11983;DHT22;72623;51.184;7.176;2023-10-19T02:31:36;12.20;99.90
11983;DHT22;72623;51.184;7.176;2023-10-19T02:34:09;12.20;99.90
11983;DHT22;72623;51.184;7.176;2023-10-19T02:36:36;12.30;99.90
11983;DHT22;72623;51.184;7.176;2023-10-19T02:39:05;12.30;99.90
11983;DHT22;72623;51.184;7.176;2023-10-19T02:41:54;12.30;99.90
11983;DHT22;72623;51.184;7.176;2023-10-19T02:44:20;12.30;99.90
11983;DHT22;72623;51.184;7.176;2023-10-19T02:46:49;12.20;99.90
11983;DHT22;72623;51.184;7.176;2023-10-19T02:49:18;12.20;99.90
11983;DHT22;72623;51.184;7.176;2023-10-19T02:51:45;12.30;99.90
11983;DHT22;72623;51.184;7.176;2023-10-19T02:54:13;12.20;99.90
11983;DHT22;72623;51.184;7.176;2023-10-19T02:56:43;12.20;99.90
11983;DHT22;72623;51.184;7.176;2023-10-19T02:59:13;12.30;99.90
11983;DHT22;72623;51.184;7.176;2023-10-19T03:01:41;12.30;99.90
11983;DHT22;72623;51.184;7.176;2023-10-19T03:04:09;12.30;99.90
11983;DHT22;72623;51.184;7.176;2023-10-19T03:06:38;12.30;99.90
11983;DHT22;72623;51.184;7.176;2023-10-19T03:09:07;12.30;99.90
11983;DHT22;72623;51.184;7.176;2023-10-19T03:11:39;12.30;99.90
11983;DHT22;72623;51.184;7.176;2023-10-19T03:14:08;12.40;99.90
11983;DHT22;72623;51.184;7.176;2023-10-19T03:16:35;12.40;99.90
11983;DHT22;72623;51.184;7.176;2023-10-19T03:19:02;12.50;99.90
11983;DHT22;72623;51.184;7.176;2023-10-19T03:21:30;12.50;99.90
11983;DHT22;72623;51.184;7.176;2023-10-19T03:23:59;12.50;99.90
11983;DHT22;72623;51.184;7.176;2023-10-19T03:26:28;12.50;99.90
11983;DHT22;72623;51.184;7.176;2023-10-19T03:29:02;12.50;99.90
11983;DHT22;72623;51.184;7.176;2023-10-19T03:31:33;12.60;99.90
11983;DHT22;72623;51.184;7.176;2023-10-19T03:34:03;12.60;99.90
11983;DHT22;72623;51.184;7.176;2023-10-19T03:36:31;12.60;99.90
11983;DHT22;72623;51.184;7.176;2023-10-19T03:38:58;12.70;99.90
11983;DHT22;72623;51.184;7.176;2023-10-19T03:41:37;12.70;99.90
11983;DHT22;72623;51.184;7.176;2023-10-19T03:44:05;12.70;99.90
11983;DHT22;72623;51.184;7.176;2023-10-19T03:46:32;12.60;99.90
11983;DHT22;72623;51.184;7.176;2023-10-19T03:49:03;12.70;99.90
11983;DHT22;72623;51.184;7.176;2023-10-19T03:51:37;12.70;99.90
11983;DHT22;72623;51.184;7.176;2023-10-19T03:54:23;12.70;99.90
11983;DHT22;72623;51.184;7.176;2023-10-19T03:56:51;12.70;99.90
11983;DHT22;72623;51.184;7.176;2023-10-19T03:59:18;12.70;99.90
11983;DHT22;72623;51.184;7.176;2023-10-19T04:01:45;12.70;99.90
11983;DHT22;72623;51.184;7.176;2023-10-19T04:04:12;12.70;99.90
11983;DHT22;72623;51.184;7.176;2023-10-19T04:06:39;12.70;99.90
11983;DHT22;72623;51.184;7.176;2023-10-19T04:09:06;12.60;99.90
11983;DHT22;72623;51.184;7.176;2023-10-19T04:11:35;12.70;99.90
11983;DHT22;72623;51.184;7.176;2023-10-19T04:14:14;12.70;99.90
11983;DHT22;72623;51.184;7.176;2023-10-19T04:16:42;12.70;99.90
11983;DHT22;72623;51.184;7.176;2023-10-19T04:19:13;12.80;99.90
11983;DHT22;72623;51.184;7.176;2023-10-19T04:21:44;12.80;99.90
11983;DHT22;72623;51.184;7.176;2023-10-19T04:24:12;12.80;99.90
11983;DHT22;72623;51.184;7.176;2023-10-19T04:26:39;12.80;99.90
11983;DHT22;72623;51.184;7.176;2023-10-19T04:29:07;12.80;99.90
11983;DHT22;72623;51.184;7.176;2023-10-19T04:31:37;12.90;99.90
11983;DHT22;72623;51.184;7.176;2023-10-19T04:34:15;12.80;99.90
11983;DHT22;72623;51.184;7.176;2023-10-19T04:36:46;12.80;99.90
11983;DHT22;72623;51.184;7.176;2023-10-19T04:39:13;12.70;99.90
11983;DHT22;72623;51.184;7.176;2023-10-19T04:41:40;12.70;99.90
11983;DHT22;72623;51.184;7.176;2023-10-19T04:44:07;12.60;99.90
11983;DHT22;72623;51.184;7.176;2023-10-19T04:46:36;12.50;99.90
11983;DHT22;72623;51.184;7.176;2023-10-19T04:49:03;12.50;99.90
11983;DHT22;72623;51.184;7.176;2023-10-19T04:51:30;12.60;99.90
11983;DHT22;72623;51.184;7.176;2023-10-19T04:53:56;12.60;99.90
11983;DHT22;72623;51.184;7.176;2023-10-19T04:56:23;12.60;99.90
11983;DHT22;72623;51.184;7.176;2023-10-19T04:58:49;12.60;99.90
11983;DHT22;72623;51.184;7.176;2023-10-19T05:01:16;12.60;99.90
11983;DHT22;72623;51.184;7.176;2023-10-19T05:03:43;12.70;99.90
11983;DHT22;72623;51.184;7.176;2023-10-19T05:06:11;12.70;99.90
11983;DHT22;72623;51.184;7.176;2023-10-19T05:08:39;12.70;99.90
11983;DHT22;72623;51.184;7.176;2023-10-19T05:11:06;12.70;99.90
11983;DHT22;72623;51.184;7.176;2023-10-19T05:13:32;12.70;99.90
11983;DHT22;72623;51.184;7.176;2023-10-19T05:16:00;12.70;99.90
11983;DHT22;72623;51.184;7.176;2023-10-19T05:18:27;12.70;99.90
11983;DHT22;72623;51.184;7.176;2023-10-19T05:20:56;12.80;99.90
11983;DHT22;72623;51.184;7.176;2023-10-19T05:23:23;12.70;99.90
11983;DHT22;72623;51.184;7.176;2023-10-19T05:25:52;12.80;99.90
11983;DHT22;72623;51.184;7.176;2023-10-19T05:28:20;12.80;99.90
11983;DHT22;72623;51.184;7.176;2023-10-19T05:30:48;12.80;99.90
11983;DHT22;72623;51.184;7.176;2023-10-19T05:33:16;12.80;99.90
11983;DHT22;72623;51.184;7.176;2023-10-19T05:35:46;12.90;99.90
11983;DHT22;72623;51.184;7.176;2023-10-19T05:38:13;12.90;99.90
11983;DHT22;72623;51.184;7.176;2023-10-19T05:40:39;12.90;99.90
11983;DHT22;72623;51.184;7.176;2023-10-19T05:43:08;12.90;99.90
11983;DHT22;72623;51.184;7.176;2023-10-19T05:45:35;12.80;99.90
11983;DHT22;72623;51.184;7.176;2023-10-19T05:48:02;12.80;99.90
11983;DHT22;72623;51.184;7.176;2023-10-19T05:50:32;12.90;99.90
11983;DHT22;72623;51.184;7.176;2023-10-19T05:52:59;12.90;99.90
11983;DHT22;72623;51.184;7.176;2023-10-19T05:58:47;12.90;99.90
11983;DHT22;72623;51.184;7.176;2023-10-19T06:01:16;12.90;99.90
11983;DHT22;72623;51.184;7.176;2023-10-19T06:03:44;12.90;99.90
11983;DHT22;72623;51.184;7.176;2023-10-19T06:06:10;12.90;99.90
11983;DHT22;72623;51.184;7.176;2023-10-19T06:08:37;12.90;99.90
11983;DHT22;72623;51.184;7.176;2023-10-19T06:11:03;12.90;99.90
11983;DHT22;72623;51.184;7.176;2023-10-19T06:13:31;13.00;99.90
11983;DHT22;72623;51.184;7.176;2023-10-19T06:15:57;13.00;99.90
11983;DHT22;72623;51.184;7.176;2023-10-19T06:18:24;13.10;99.90
11983;DHT22;72623;51.184;7.176;2023-10-19T06:20:51;13.10;99.90
11983;DHT22;72623;51.184;7.176;2023-10-19T06:23:20;13.10;99.90
11983;DHT22;72623;51.184;7.176;2023-10-19T06:25:47;13.10;99.90
11983;DHT22;72623;51.184;7.176;2023-10-19T06:28:16;13.20;99.90
11983;DHT22;72623;51.184;7.176;2023-10-19T06:30:43;13.20;99.90
11983;DHT22;72623;51.184;7.176;2023-10-19T06:33:10;13.20;99.90
11983;DHT22;72623;51.184;7.176;2023-10-19T06:35:37;13.20;99.90
11983;DHT22;72623;51.184;7.176;2023-10-19T06:38:04;13.30;99.90
11983;DHT22;72623;51.184;7.176;2023-10-19T06:40:30;13.30;99.90
11983;DHT22;72623;51.184;7.176;2023-10-19T06:43:00;13.30;99.90
11983;DHT22;72623;51.184;7.176;2023-10-19T06:45:28;13.40;99.90
11983;DHT22;72623;51.184;7.176;2023-10-19T06:47:56;13.50;99.90
11983;DHT22;72623;51.184;7.176;2023-10-19T06:50:24;13.50;99.90
11983;DHT22;72623;51.184;7.176;2023-10-19T06:52:51;13.50;99.90
11983;DHT22;72623;51.184;7.176;2023-10-19T06:55:19;13.60;99.90
11983;DHT22;72623;51.184;7.176;2023-10-19T06:57:53;13.60;99.90
11983;DHT22;72623;51.184;7.176;2023-10-19T07:00:23;13.60;99.90
11983;DHT22;72623;51.184;7.176;2023-10-19T07:02:53;13.70;99.90
11983;DHT22;72623;51.184;7.176;2023-10-19T07:05:21;13.70;99.90
11983;DHT22;72623;51.184;7.176;2023-10-19T07:07:51;13.80;99.90
11983;DHT22;72623;51.184;7.176;2023-10-19T07:10:19;13.80;99.90
11983;DHT22;72623;51.184;7.176;2023-10-19T07:12:48;13.80;99.90
11983;DHT22;72623;51.184;7.176;2023-10-19T07:15:17;13.90;99.90
11983;DHT22;72623;51.184;7.176;2023-10-19T07:17:46;13.90;99.90
11983;DHT22;72623;51.184;7.176;2023-10-19T07:20:14;13.90;99.90
11983;DHT22;72623;51.184;7.176;2023-10-19T07:23:00;13.90;99.90
11983;DHT22;72623;51.184;7.176;2023-10-19T07:25:31;14.00;99.90
11983;DHT22;72623;51.184;7.176;2023-10-19T07:27:57;14.00;99.90
11983;DHT22;72623;51.184;7.176;2023-10-19T07:30:25;14.10;99.90
11983;DHT22;72623;51.184;7.176;2023-10-19T07:32:52;14.20;99.90
11983;DHT22;72623;51.184;7.176;2023-10-19T07:35:23;14.30;99.90
11983;DHT22;72623;51.184;7.176;2023-10-19T07:37:52;14.40;99.90
11983;DHT22;72623;51.184;7.176;2023-10-19T07:40:19;14.40;99.90
11983;DHT22;72623;51.184;7.176;2023-10-19T07:42:46;14.50;99.90
11983;DHT22;72623;51.184;7.176;2023-10-19T07:45:14;14.60;99.90
11983;DHT22;72623;51.184;7.176;2023-10-19T07:47:41;14.70;99.90
11983;DHT22;72623;51.184;7.176;2023-10-19T07:50:10;14.80;99.90
11983;DHT22;72623;51.184;7.176;2023-10-19T07:52:51;14.80;99.90
11983;DHT22;72623;51.184;7.176;2023-10-19T07:55:20;14.90;99.90
11983;DHT22;72623;51.184;7.176;2023-10-19T07:57:49;14.90;99.90
11983;DHT22;72623;51.184;7.176;2023-10-19T08:00:16;14.80;99.90
11983;DHT22;72623;51.184;7.176;2023-10-19T08:02:44;14.90;99.90
11983;DHT22;72623;51.184;7.176;2023-10-19T08:05:12;14.90;99.90
11983;DHT22;72623;51.184;7.176;2023-10-19T08:07:39;14.90;99.90
11983;DHT22;72623;51.184;7.176;2023-10-19T08:10:09;15.30;99.90
11983;DHT22;72623;51.184;7.176;2023-10-19T08:12:38;15.60;99.90
11983;DHT22;72623;51.184;7.176;2023-10-19T08:15:10;15.80;99.90
11983;DHT22;72623;51.184;7.176;2023-10-19T08:17:41;15.80;99.90
11983;DHT22;72623;51.184;7.176;2023-10-19T08:20:10;15.70;99.90
11983;DHT22;72623;51.184;7.176;2023-10-19T08:22:42;15.70;99.90
11983;DHT22;72623;51.184;7.176;2023-10-19T08:25:09;15.50;99.90
11983;DHT22;72623;51.184;7.176;2023-10-19T08:27:41;15.50;99.90
11983;DHT22;72623;51.184;7.176;2023-10-19T08:30:13;15.40;99.90
11983;DHT22;72623;51.184;7.176;2023-10-19T08:32:43;15.50;99.90
11983;DHT22;72623;51.184;7.176;2023-10-19T08:35:18;15.40;99.90
11983;DHT22;72623;51.184;7.176;2023-10-19T08:37:46;15.40;99.90
11983;DHT22;72623;51.184;7.176;2023-10-19T08:40:13;15.70;99.90
11983;DHT22;72623;51.184;7.176;2023-10-19T08:42:46;16.00;99.90
11983;DHT22;72623;51.184;7.176;2023-10-19T08:45:14;16.10;99.90
11983;DHT22;72623;51.184;7.176;2023-10-19T08:50:25;15.70;99.90
11983;DHT22;72623;51.184;7.176;2023-10-19T08:52:56;15.50;99.90
11983;DHT22;72623;51.184;7.176;2023-10-19T08:55:24;15.50;99.90
11983;DHT22;72623;51.184;7.176;2023-10-19T08:57:51;15.40;99.90
11983;DHT22;72623;51.184;7.176;2023-10-19T09:00:19;15.50;99.90
11983;DHT22;72623;51.184;7.176;2023-10-19T09:02:51;15.60;99.90
11983;DHT22;72623;51.184;7.176;2023-10-19T09:05:19;15.70;99.90
11983;DHT22;72623;51.184;7.176;2023-10-19T09:07:48;16.00;99.90
11983;DHT22;72623;51.184;7.176;2023-10-19T09:10:20;16.30;99.90
11983;DHT22;72623;51.184;7.176;2023-10-19T09:13:08;16.30;99.90
11983;DHT22;72623;51.184;7.176;2023-10-19T09:15:36;16.70;99.90
11983;DHT22;72623;51.184;7.176;2023-10-19T09:18:20;16.90;99.90
11983;DHT22;72623;51.184;7.176;2023-10-19T09:20:49;17.00;99.90
11983;DHT22;72623;51.184;7.176;2023-10-19T09:23:28;17.30;81.70
11983;DHT22;72623;51.184;7.176;2023-10-19T09:25:57;17.60;58.40
11983;DHT22;72623;51.184;7.176;2023-10-19T09:28:25;17.70;6.40
11983;DHT22;72623;51.184;7.176;2023-10-19T09:30:52;17.60;20.60
11983;DHT22;72623;51.184;7.176;2023-10-19T09:33:23;17.60;1.00
11983;DHT22;72623;51.184;7.176;2023-10-19T09:35:50;17.70;1.00
11983;DHT22;72623;51.184;7.176;2023-10-19T09:38:20;18.00;22.30
11983;DHT22;72623;51.184;7.176;2023-10-19T09:40:51;18.30;1.00
11983;DHT22;72623;51.184;7.176;2023-10-19T09:43:34;19.70;1.00
11983;DHT22;72623;51.184;7.176;2023-10-19T09:46:08;21.30;99.90
11983;DHT22;72623;51.184;7.176;2023-10-19T09:48:41;24.60;65.90
11983;DHT22;72623;51.184;7.176;2023-10-19T09:51:09;25.20;99.90
11983;DHT22;72623;51.184;7.176;2023-10-19T09:53:37;25.50;99.90
11983;DHT22;72623;51.184;7.176;2023-10-19T09:56:06;25.10;93.40
11983;DHT22;72623;51.184;7.176;2023-10-19T09:58:41;24.50;1.00
11983;DHT22;72623;51.184;7.176;2023-10-19T10:01:11;25.10;1.00
11983;DHT22;72623;51.184;7.176;2023-10-19T10:03:52;25.50;99.90
11983;DHT22;72623;51.184;7.176;2023-10-19T10:09:19;27.50;1.00
11983;DHT22;72623;51.184;7.176;2023-10-19T10:11:49;28.30;1.00
11983;DHT22;72623;51.184;7.176;2023-10-19T10:14:25;28.10;99.90
11983;DHT22;72623;51.184;7.176;2023-10-19T10:17:03;28.10;1.00
11983;DHT22;72623;51.184;7.176;2023-10-19T10:19:30;26.90;1.00
11983;DHT22;72623;51.184;7.176;2023-10-19T10:24:31;24.50;1.00
11983;DHT22;72623;51.184;7.176;2023-10-19T10:26:59;23.80;99.90
11983;DHT22;72623;51.184;7.176;2023-10-19T10:29:28;23.10;1.00
11983;DHT22;72623;51.184;7.176;2023-10-19T10:31:57;22.80;1.00
11983;DHT22;72623;51.184;7.176;2023-10-19T10:37:08;22.20;49.30
11983;DHT22;72623;51.184;7.176;2023-10-19T10:39:36;21.80;1.50
11983;DHT22;72623;51.184;7.176;2023-10-19T10:42:05;21.50;1.00
11983;DHT22;72623;51.184;7.176;2023-10-19T10:44:42;21.40;1.00
11983;DHT22;72623;51.184;7.176;2023-10-19T10:47:11;21.70;1.00
11983;DHT22;72623;51.184;7.176;2023-10-19T10:49:48;21.50;99.90
11983;DHT22;72623;51.184;7.176;2023-10-19T10:54:51;21.30;99.90
11983;DHT22;72623;51.184;7.176;2023-10-19T10:57:19;21.00;99.60
11983;DHT22;72623;51.184;7.176;2023-10-19T10:59:46;20.40;99.90
11983;DHT22;72623;51.184;7.176;2023-10-19T11:02:19;20.00;99.90
11983;DHT22;72623;51.184;7.176;2023-10-19T11:04:47;20.00;99.90
11983;DHT22;72623;51.184;7.176;2023-10-19T11:07:23;19.80;99.90
11983;DHT22;72623;51.184;7.176;2023-10-19T11:09:50;19.40;99.90
11983;DHT22;72623;51.184;7.176;2023-10-19T11:12:17;19.40;99.90
11983;DHT22;72623;51.184;7.176;2023-10-19T11:15:10;19.70;99.90
11983;DHT22;72623;51.184;7.176;2023-10-19T11:17:43;19.90;99.90
11983;DHT22;72623;51.184;7.176;2023-10-19T11:20:20;20.40;99.90
11983;DHT22;72623;51.184;7.176;2023-10-19T11:22:48;21.00;99.90
11983;DHT22;72623;51.184;7.176;2023-10-19T11:25:23;21.70;99.90
11983;DHT22;72623;51.184;7.176;2023-10-19T11:27:54;22.30;94.90
11983;DHT22;72623;51.184;7.176;2023-10-19T11:30:29;22.10;93.50
11983;DHT22;72623;51.184;7.176;2023-10-19T11:32:57;21.30;95.80
11983;DHT22;72623;51.184;7.176;2023-10-19T11:35:29;20.90;97.80
11983;DHT22;72623;51.184;7.176;2023-10-19T11:38:00;20.60;99.90
11983;DHT22;72623;51.184;7.176;2023-10-19T11:40:28;20.10;99.90
11983;DHT22;72623;51.184;7.176;2023-10-19T11:42:55;19.80;99.90
11983;DHT22;72623;51.184;7.176;2023-10-19T11:45:22;20.00;99.90
11983;DHT22;72623;51.184;7.176;2023-10-19T11:47:49;20.00;99.90
11983;DHT22;72623;51.184;7.176;2023-10-19T11:50:17;19.90;99.90
11983;DHT22;72623;51.184;7.176;2023-10-19T11:52:45;20.20;99.90
11983;DHT22;72623;51.184;7.176;2023-10-19T11:55:13;20.40;99.90
11983;DHT22;72623;51.184;7.176;2023-10-19T11:57:40;20.20;99.90
11983;DHT22;72623;51.184;7.176;2023-10-19T12:00:12;19.60;99.90
11983;DHT22;72623;51.184;7.176;2023-10-19T12:02:45;19.20;99.90
11983;DHT22;72623;51.184;7.176;2023-10-19T12:05:12;18.90;99.90
11983;DHT22;72623;51.184;7.176;2023-10-19T12:07:39;18.90;99.90
11983;DHT22;72623;51.184;7.176;2023-10-19T12:10:07;18.90;1.00
11983;DHT22;72623;51.184;7.176;2023-10-19T12:12:37;18.90;1.00
11983;DHT22;72623;51.184;7.176;2023-10-19T12:15:05;19.00;99.90
11983;DHT22;72623;51.184;7.176;2023-10-19T12:17:32;19.20;1.00
11983;DHT22;72623;51.184;7.176;2023-10-19T12:19:59;19.00;99.90
11983;DHT22;72623;51.184;7.176;2023-10-19T12:22:26;18.90;99.90
11983;DHT22;72623;51.184;7.176;2023-10-19T12:24:54;18.70;99.90
11983;DHT22;72623;51.184;7.176;2023-10-19T12:27:22;18.60;99.90
11983;DHT22;72623;51.184;7.176;2023-10-19T12:29:50;18.20;99.90
11983;DHT22;72623;51.184;7.176;2023-10-19T12:32:17;17.90;99.90
11983;DHT22;72623;51.184;7.176;2023-10-19T12:34:44;17.90;99.90
11983;DHT22;72623;51.184;7.176;2023-10-19T12:37:11;17.90;99.90
11983;DHT22;72623;51.184;7.176;2023-10-19T12:39:38;17.70;99.90
11983;DHT22;72623;51.184;7.176;2023-10-19T12:42:10;17.60;99.90
11983;DHT22;72623;51.184;7.176;2023-10-19T12:44:39;17.40;99.90
11983;DHT22;72623;51.184;7.176;2023-10-19T12:47:07;17.30;99.90
11983;DHT22;72623;51.184;7.176;2023-10-19T12:49:37;17.10;99.90
11983;DHT22;72623;51.184;7.176;2023-10-19T12:52:04;17.10;99.90
11983;DHT22;72623;51.184;7.176;2023-10-19T12:54:36;17.10;99.90
11983;DHT22;72623;51.184;7.176;2023-10-19T12:57:03;17.10;99.90
11983;DHT22;72623;51.184;7.176;2023-10-19T12:59:35;17.20;99.90
11983;DHT22;72623;51.184;7.176;2023-10-19T13:02:03;17.20;99.90
11983;DHT22;72623;51.184;7.176;2023-10-19T13:04:30;17.10;99.90
11983;DHT22;72623;51.184;7.176;2023-10-19T13:06:57;17.00;99.90
11983;DHT22;72623;51.184;7.176;2023-10-19T13:09:25;16.90;99.90
11983;DHT22;72623;51.184;7.176;2023-10-19T13:11:58;16.80;99.90
11983;DHT22;72623;51.184;7.176;2023-10-19T13:14:26;16.80;99.90
11983;DHT22;72623;51.184;7.176;2023-10-19T13:16:53;16.90;99.90
11983;DHT22;72623;51.184;7.176;2023-10-19T13:19:22;17.00;99.90
11983;DHT22;72623;51.184;7.176;2023-10-19T13:21:51;17.10;99.90
11983;DHT22;72623;51.184;7.176;2023-10-19T13:24:18;17.10;99.90
11983;DHT22;72623;51.184;7.176;2023-10-19T13:26:49;16.90;99.90
11983;DHT22;72623;51.184;7.176;2023-10-19T13:29:16;16.70;99.90
11983;DHT22;72623;51.184;7.176;2023-10-19T13:31:44;16.60;99.90
11983;DHT22;72623;51.184;7.176;2023-10-19T13:34:15;16.40;99.90
11983;DHT22;72623;51.184;7.176;2023-10-19T13:36:42;16.30;99.90
11983;DHT22;72623;51.184;7.176;2023-10-19T13:39:10;16.30;99.90
11983;DHT22;72623;51.184;7.176;2023-10-19T13:41:41;16.30;99.90
11983;DHT22;72623;51.184;7.176;2023-10-19T13:44:08;16.30;99.90
11983;DHT22;72623;51.184;7.176;2023-10-19T13:46:34;16.40;99.90
11983;DHT22;72623;51.184;7.176;2023-10-19T13:49:01;16.50;99.90
11983;DHT22;72623;51.184;7.176;2023-10-19T13:51:30;16.60;99.90
11983;DHT22;72623;51.184;7.176;2023-10-19T13:53:58;16.70;99.90
11983;DHT22;72623;51.184;7.176;2023-10-19T13:56:25;16.70;99.90
11983;DHT22;72623;51.184;7.176;2023-10-19T13:58:52;16.70;99.90
11983;DHT22;72623;51.184;7.176;2023-10-19T14:01:19;16.70;99.90
11983;DHT22;72623;51.184;7.176;2023-10-19T14:03:53;16.70;99.90
11983;DHT22;72623;51.184;7.176;2023-10-19T14:06:21;16.60;99.90
11983;DHT22;72623;51.184;7.176;2023-10-19T14:08:49;16.50;99.90
11983;DHT22;72623;51.184;7.176;2023-10-19T14:11:16;16.50;99.90
11983;DHT22;72623;51.184;7.176;2023-10-19T14:13:42;16.60;99.90
11983;DHT22;72623;51.184;7.176;2023-10-19T14:16:10;16.40;99.90
11983;DHT22;72623;51.184;7.176;2023-10-19T14:18:37;16.30;99.90
11983;DHT22;72623;51.184;7.176;2023-10-19T14:21:11;16.30;99.90
11983;DHT22;72623;51.184;7.176;2023-10-19T14:23:39;16.20;99.90
11983;DHT22;72623;51.184;7.176;2023-10-19T14:26:06;16.00;99.90
11983;DHT22;72623;51.184;7.176;2023-10-19T14:28:34;15.90;99.90
11983;DHT22;72623;51.184;7.176;2023-10-19T14:31:02;15.80;99.90
11983;DHT22;72623;51.184;7.176;2023-10-19T14:33:30;15.70;99.90
11983;DHT22;72623;51.184;7.176;2023-10-19T14:35:58;15.70;99.90
11983;DHT22;72623;51.184;7.176;2023-10-19T14:38:25;15.80;99.90
11983;DHT22;72623;51.184;7.176;2023-10-19T14:40:53;15.80;99.90
11983;DHT22;72623;51.184;7.176;2023-10-19T14:43:19;15.80;99.90
11983;DHT22;72623;51.184;7.176;2023-10-19T14:45:46;15.80;99.90
11983;DHT22;72623;51.184;7.176;2023-10-19T14:48:12;15.80;99.90
11983;DHT22;72623;51.184;7.176;2023-10-19T14:50:40;15.90;99.90
11983;DHT22;72623;51.184;7.176;2023-10-19T14:53:08;15.90;99.90
11983;DHT22;72623;51.184;7.176;2023-10-19T14:55:34;16.00;99.90
11983;DHT22;72623;51.184;7.176;2023-10-19T14:58:01;15.90;99.90
11983;DHT22;72623;51.184;7.176;2023-10-19T15:00:28;15.80;99.90
11983;DHT22;72623;51.184;7.176;2023-10-19T15:03:01;15.80;99.90
11983;DHT22;72623;51.184;7.176;2023-10-19T15:05:32;15.70;99.90
11983;DHT22;72623;51.184;7.176;2023-10-19T15:08:01;15.60;99.90
11983;DHT22;72623;51.184;7.176;2023-10-19T15:10:30;15.60;99.90
11983;DHT22;72623;51.184;7.176;2023-10-19T15:12:58;15.50;99.90
11983;DHT22;72623;51.184;7.176;2023-10-19T15:15:26;15.40;99.90
11983;DHT22;72623;51.184;7.176;2023-10-19T15:17:53;15.40;99.90
11983;DHT22;72623;51.184;7.176;2023-10-19T15:20:24;15.30;99.90
11983;DHT22;72623;51.184;7.176;2023-10-19T15:22:51;15.30;99.90
11983;DHT22;72623;51.184;7.176;2023-10-19T15:25:19;15.40;99.90
11983;DHT22;72623;51.184;7.176;2023-10-19T15:27:47;15.40;99.90
11983;DHT22;72623;51.184;7.176;2023-10-19T15:30:14;15.50;99.90
11983;DHT22;72623;51.184;7.176;2023-10-19T15:32:44;15.50;99.90
11983;DHT22;72623;51.184;7.176;2023-10-19T15:35:12;15.50;99.90
11983;DHT22;72623;51.184;7.176;2023-10-19T15:37:41;15.50;99.90
11983;DHT22;72623;51.184;7.176;2023-10-19T15:40:09;15.60;99.90
11983;DHT22;72623;51.184;7.176;2023-10-19T15:42:41;15.50;99.90
11983;DHT22;72623;51.184;7.176;2023-10-19T15:45:11;15.60;99.90
11983;DHT22;72623;51.184;7.176;2023-10-19T15:47:39;15.60;99.90
11983;DHT22;72623;51.184;7.176;2023-10-19T15:50:07;15.70;99.90
11983;DHT22;72623;51.184;7.176;2023-10-19T15:52:35;15.60;99.90
11983;DHT22;72623;51.184;7.176;2023-10-19T15:55:06;15.50;99.90
11983;DHT22;72623;51.184;7.176;2023-10-19T15:57:33;15.50;99.90
11983;DHT22;72623;51.184;7.176;2023-10-19T16:00:00;15.50;99.90
11983;DHT22;72623;51.184;7.176;2023-10-19T16:02:26;15.40;99.90